Jordan Harbour

*Note: All times are displayed in the local standard time of the station location.
**Rain - Equipment is designed to accurately record liquid precipitation; under conditions when precipitation is not in liquid form, the data displayed may not properly reflect rainfall values.

Date Max Temp
(°C)
Min Temp
(°C)
Avg Temp
(°C)
Rain (mm) Avg RH (%)
Fri, Dec 14, 2018 7.3 0.8 3.4 1.4 88.9
Thu, Dec 13, 2018 6.0 -1.2 1.4 1.2 93.7
Wed, Dec 12, 2018 2.2 -3.8 -0.2 0.0 84.4
Tue, Dec 11, 2018 0.5 -1.6 -0.6 0.0 80.6
Mon, Dec 10, 2018 1.6 -1.7 -0.1 0.0 79.4
Sun, Dec 09, 2018 1.5 -6.6 -2.1 0.0 73.6
Sat, Dec 08, 2018 0.3 -5.6 -2.7 0.0 74.6
DateTime Avg Temp (°C) Rain (mm) RH (%)
Sat, Dec 15, 2018 15:00 3.6 0.0 89.8
Sat, Dec 15, 2018 14:00 3.8 0.0 89.1
Sat, Dec 15, 2018 13:00 4.1 0.0 88.7
Sat, Dec 15, 2018 12:00 3.8 0.0 90.6
Sat, Dec 15, 2018 11:00 3.4 0.0 94.3
Sat, Dec 15, 2018 10:00 2.5 0.0 98.0
Sat, Dec 15, 2018 09:00 1.5 0.0 98.6
Sat, Dec 15, 2018 08:00 1.5 0.0 98.6
Sat, Dec 15, 2018 07:00 1.5 0.0 98.6
Sat, Dec 15, 2018 06:00 1.5 0.0 98.6
Sat, Dec 15, 2018 05:00 1.5 0.0 98.6
Sat, Dec 15, 2018 04:00 1.5 0.0 98.6
Sat, Dec 15, 2018 03:00 1.5 0.0 98.6
Sat, Dec 15, 2018 02:00 1.5 0.0 98.6
Sat, Dec 15, 2018 01:00 1.5 0.0 98.6
Sat, Dec 15, 2018 00:00 1.5 0.0 98.6
Fri, Dec 14, 2018 23:00 1.5 0.0 98.6
Fri, Dec 14, 2018 22:00 1.5 0.0 98.6
Fri, Dec 14, 2018 21:00 4.6 0.0 85.5
Fri, Dec 14, 2018 20:00 4.6 0.0 85.5
Fri, Dec 14, 2018 19:00 4.6 0.0 85.5
Fri, Dec 14, 2018 18:00 4.6 0.0 85.5
Fri, Dec 14, 2018 17:00 6.4 0.0 75.3
Fri, Dec 14, 2018 16:00 6.8 0.0 75.9
Fri, Dec 14, 2018 15:00 6.1 0.0 84.3
Fri, Dec 14, 2018 14:00 5.9 0.0 84.9
Fri, Dec 14, 2018 13:00 5.3 0.0 88.1
Fri, Dec 14, 2018 12:00 4.8 0.2 90.4
Fri, Dec 14, 2018 11:00 4.3 1.0 91.5
Fri, Dec 14, 2018 10:00 4.4 0.2 87.4
Fri, Dec 14, 2018 09:00 4.4 0.0 84.4
Fri, Dec 14, 2018 08:00 4.0 0.0 86.2
Fri, Dec 14, 2018 07:00 3.5 0.0 86.8
Fri, Dec 14, 2018 06:00 2.5 0.0 89.0
Fri, Dec 14, 2018 05:00 1.9 0.0 90.3
Fri, Dec 14, 2018 04:00 1.1 0.0 92.5
Fri, Dec 14, 2018 03:00 1.1 0.0 92.9
Fri, Dec 14, 2018 02:00 1.0 0.0 92.9
Fri, Dec 14, 2018 01:00 1.2 0.0 91.8
Fri, Dec 14, 2018 00:00 0.8 0.0 92.2
Thu, Dec 13, 2018 23:00 0.1 0.0 94.5
Thu, Dec 13, 2018 22:00 0.7 0.0 93.6
Thu, Dec 13, 2018 21:00 1.4 0.0 95.0
Thu, Dec 13, 2018 20:00 1.1 0.0 95.1
Thu, Dec 13, 2018 19:00 1.8 0.0 94.4
Thu, Dec 13, 2018 18:00 2.1 0.0 92.8
Thu, Dec 13, 2018 17:00 2.3 0.0 92.6
Thu, Dec 13, 2018 16:00 3.3 0.0 90.7


asterix Register now to access more data! asterix